SBP weather

San Luis County Regional Airport
San Luis Obispo, California, United States

Public forecast

Using degrees Fahrenheit for public forecast. Weather courtesy of forecast.io.

Current aviation weather report (METAR) for San Luis County Regional Airport

Retrieved 2019/10/17 14:15 UTC (0 seconds ago):

KSBP 171415Z 13003KT 6SM BR SCT002 07/07 A2988 RMK AO2 T00720067

Aviation forecast (TAF) for San Luis County Regional Airport

Retrieved 2019/10/17 12:30 UTC (2 hours ago):

TAF KSBP 171129Z 1712/1812 VRB03KT P6SM SKC FM171600 32008KT P6SM SKC FM172000 32018G28KT P6SM SKC FM180300 33012KT P6SM SKC